DW7234 Weather Reports


time (UTC)temp
C
wind
direction
speed
KPH
gust
KPH
rain 1hr
cm
rain 24hr
cm
rain mn
cm
humidity
%
barometer
mb
20190424042515 13 127 12.9 30.6 0.00 0.00 0.00 70 999.3
20190424042015 13 121 17.7 30.6 0.00 0.00 0.00 70 999.2
20190424041015 13 67 12.9 22.5 0.00 0.00 0.00 70 999.2
20190424034515 13 109 19.3 24.1 0.00 0.00 0.00 69 998.7
20190424033514 13 101 12.9 25.7 0.00 0.00 0.00 68 998.8
20190424033015 13 106 17.7 29.0 0.00 0.00 0.00 68 998.5
20190424031014 13 134 19.3 30.6 0.00 0.00 0.00 68 998.4
20190424030516 13 134 19.3 30.6 0.00 0.00 0.00 68 998.4
20190424030015 13 101 19.3 30.6 0.00 0.00 0.00 68 998.6
20190424025014 13 98 19.3 30.6 0.00 0.00 0.00 68 998.5
20190424024514 13 110 20.9 30.6 0.00 0.00 0.00 68 998.5
20190424023514 14 121 20.9 32.2 0.00 0.00 0.00 68 998.5
20190424021013 13 131 20.9 30.6 0.00 0.00 0.00 68 998.3
20190424020514 14 119 20.9 30.6 0.00 0.00 0.00 68 998.5
20190424020014 14 122 20.9 32.2 0.00 0.00 0.00 68 998.5
20190424015513 14 131 20.9 32.2 0.00 0.00 0.00 68 998.2
20190424015014 14 131 22.5 32.2 0.00 0.00 0.00 68 998.2
20190424014514 14 82 22.5 35.4 0.00 0.00 0.00 67 998.3
20190424014013 14 113 22.5 35.4 0.00 0.00 0.00 67 998.3
20190424013513 12 103 24.1 37.0 0.00 0.00 0.00 60 997.1
20190424013018 14 103 22.5 32.2 0.00 0.00 0.00 67 998.3
20190424012518 14 95 20.9 30.6 0.00 0.00 0.00 67 998.2
20190424012018 14 146 20.9 32.2 0.00 0.00 0.00 67 998.3
20190424010517 14 85 22.5 30.6 0.00 0.00 0.00 67 998.1
20190424010017 14 99 20.9 30.6 0.00 0.00 0.00 67 997.9
20190424005017 14 94 19.3 29.0 0.00 0.00 0.00 67 997.9
20190424004518 14 96 17.7 29.0 0.00 0.00 0.00 67 997.9
20190424003518 14 111 22.5 30.6 0.00 0.00 0.00 67 998.0
20190424003018 14 103 19.3 30.6 0.00 0.00 0.00 67 998.0
20190424000017 15 89 17.7 35.4 0.00 0.00 0.00 66 998.0
20190423235517 15 105 20.9 32.2 0.00 0.00 0.00 66 998.0
20190423235016 15 94 19.3 32.2 0.00 0.00 0.00 66 998.0
20190423234517 15 104 19.3 32.2 0.00 0.00 0.00 66 998.1
20190423234017 15 53 19.3 33.8 0.00 0.00 0.00 66 998.1
20190423233517 15 105 22.5 33.8 0.00 0.00 0.00 66 998.0
20190423233018 15 70 17.7 35.4 0.00 0.00 0.00 66 998.1
20190423232516 15 106 19.3 35.4 0.00 0.00 0.00 65 998.0
20190423232017 15 110 19.3 33.8 0.00 0.00 0.00 65 997.9
20190423230017 15 110 14.5 32.2 0.00 0.00 0.00 64 998.0
20190423225516 15 71 17.7 32.2 0.00 0.00 0.00 64 998.0
20190423225017 15 115 17.7 32.2 0.00 0.00 0.00 64 997.9
20190423224517 15 106 17.7 29.0 0.00 0.00 0.00 64 997.9
20190423224015 15 63 14.5 32.2 0.00 0.00 0.00 64 997.9
20190423223516 15 84 16.1 32.2 0.00 0.00 0.00 64 997.7
20190423221016 16 67 16.1 30.6 0.00 0.00 0.00 63 997.6
20190423220516 16 111 17.7 30.6 0.00 0.00 0.00 63 997.7
20190423215016 16 99 16.1 29.0 0.00 0.00 0.00 62 997.7
20190423214515 16 65 14.5 30.6 0.00 0.00 0.00 62 997.8
20190423214015 16 50 14.5 32.2 0.00 0.00 0.00 62 997.8
20190423213015 16 119 14.5 30.6 0.00 0.00 0.00 62 997.6
20190423212515 16 119 16.1 30.6 0.00 0.00 0.00 62 997.6
20190423211514 16 111 12.9 29.0 0.00 0.00 0.00 61 997.6
20190423205015 17 61 11.3 22.5 0.00 0.00 0.00 60 997.6
20190423204016 17 66 11.3 30.6 0.00 0.00 0.00 60 997.6
20190423203015 17 121 11.3 25.7 0.00 0.00 0.00 60 997.6
20190423202515 17 45 11.3 29.0 0.00 0.00 0.00 60 997.6
20190423201515 17 84 9.7 24.1 0.00 0.00 0.00 59 997.5
20190423200514 17 55 11.3 22.5 0.00 0.00 0.00 59 997.7
20190423194509 17 81 9.7 25.7 0.00 0.00 0.00 58 997.5
20190423194009 17 63 11.3 25.7 0.00 0.00 0.00 58 997.4
20190423193510 17 84 8.0 24.1 0.00 0.00 0.00 58 997.5
20190423193011 17 92 11.3 22.5 0.00 0.00 0.00 58 997.4
20190423191509 17 62 11.3 25.7 0.00 0.00 0.00 57 997.5
20190423190508 15 112 11.3 40.2 0.00 0.00 0.00 44 1000.6
20190423190009 17 43 9.7 17.7 0.00 0.00 0.00 57 997.4
20190423185009 17 82 9.7 17.7 0.00 0.00 0.00 57 997.3
20190423182008 15 112 12.9 40.2 0.00 0.00 0.00 44 1000.7
20190423181507 15 112 8.0 40.2 0.00 0.00 0.00 44 1000.7
20190423181007 15 112 12.9 40.2 0.00 0.00 0.00 44 1000.7
20190423180507 18 96 6.4 14.5 0.00 0.00 0.00 56 997.2
20190423180007 15 112 12.9 40.2 0.00 0.00 0.00 44 1000.7
20190423175513 18 86 9.7 16.1 0.00 0.00 0.00 55 997.3
20190423175027 18 75 8.0 17.7 0.00 0.00 0.00 55 997.3
20190423174512 18 69 8.0 17.7 0.00 0.00 0.00 55 997.3
20190423173012 19 101 9.7 17.7 0.00 0.00 0.00 56 997.3
20190423170513 18 94 4.8 12.9 0.00 0.00 0.00 58 997.4
20190423170012 18 90 8.0 16.1 0.00 0.00 0.00 58 997.4
20190423165511 18 93 9.7 16.1 0.00 0.00 0.00 59 997.4
20190423165011 18 101 8.0 16.1 0.00 0.00 0.00 58 997.3
20190423164512 18 126 4.8 12.9 0.00 0.00 0.00 59 997.4
20190423164012 18 109 6.4 14.5 0.00 0.00 0.00 58 997.4
20190423162011 19 87 6.4 12.9 0.00 0.00 0.00 58 997.4
20190423161511 19 123 6.4 12.9 0.00 0.00 0.00 58 997.4
20190423161011 19 130 6.4 9.7 0.00 0.00 0.00 58 997.4
20190423155511 19 62 3.2 11.3 0.00 0.00 0.00 59 997.4
20190423154511 18 87 8.0 16.1 0.00 0.00 0.00 57 997.4
20190423154010 18 90 6.4 16.1 0.00 0.00 0.00 57 997.3
20190423153010 18 54 6.4 14.5 0.00 0.00 0.00 59 997.4
20190423152511 18 105 6.4 16.1 0.00 0.00 0.00 59 997.3
20190423152011 18 111 9.7 16.1 0.00 0.00 0.00 57 997.4
20190423151510 18 94 6.4 14.5 0.00 0.00 0.00 58 997.4
20190423151010 18 94 6.4 14.5 0.00 0.00 0.00 58 997.4
20190423150010 18 82 8.0 12.9 0.00 0.00 0.00 57 997.4
20190423145011 18 95 4.8 12.9 0.00 0.00 0.00 55 997.5
20190423144010 18 80 4.8 12.9 0.00 0.00 0.00 56 997.7
20190423142510 18 9 3.2 8.0 0.00 0.00 0.00 55 997.6
20190423142009 18 59 1.6 12.9 0.00 0.00 0.00 56 997.7
20190423141510 18 96 4.8 16.1 0.00 0.00 0.00 54 997.6
20190423141010 18 125 4.8 16.1 0.00 0.00 0.00 56 997.7
20190423140510 18 98 4.8 11.3 0.00 0.00 0.00 55 997.6
20190423140009 18 71 4.8 11.3 0.00 0.00 0.00 57 997.6
20190423135009 18 105 4.8 12.9 0.00 0.00 0.00 55 997.6
20190423134509 18 142 4.8 16.1 0.00 0.00 0.00 56 997.5
20190423132009 18 82 4.8 11.3 0.00 0.00 0.00 57 997.9
20190423131510 18 133 8.0 11.3 0.00 0.00 0.00 55 997.8
20190423125509 18 84 4.8 14.5 0.00 0.00 0.00 56 997.8
20190423124008 15 112 12.9 40.2 0.00 0.00 0.00 44 1001.3
20190423122008 17 93 8.0 22.5 0.00 0.00 0.00 57 997.9
20190423121508 17 63 8.0 22.5 0.00 0.00 0.00 57 997.8
20190423120528 17 70 9.7 19.3 0.00 0.00 0.00 59 997.8
20190423120011 17 80 4.8 19.3 0.00 0.00 0.00 59 997.6
20190423115512 17 41 9.7 20.9 0.00 0.00 0.00 58 997.8
20190423114012 17 103 9.7 17.7 0.00 0.00 0.00 59 997.7
20190423113510 17 91 6.4 25.7 0.00 0.00 0.00 60 997.7
20190423113010 17 111 8.0 25.7 0.00 0.00 0.00 58 997.7
20190423112510 17 90 8.0 17.7 0.00 0.00 0.00 59 997.8
20190423111511 17 83 6.4 19.3 0.00 0.00 0.00 62 997.7
20190423110011 16 105 11.3 19.3 0.00 0.00 0.00 61 997.5
20190423104510 16 52 9.7 19.3 0.00 0.00 0.00 61 997.4
20190423103010 16 98 9.7 20.9 0.00 0.00 0.00 63 997.6
20190423102010 15 134 8.0 19.3 0.00 0.00 0.00 63 997.4
20190423101510 15 119 8.0 19.3 0.00 0.00 0.00 64 997.5
20190423100510 15 78 12.9 17.7 0.00 0.00 0.00 63 997.6
20190423100011 15 51 8.0 22.5 0.00 0.00 0.00 64 997.5
20190423094510 14 80 6.4 24.1 0.00 0.00 0.00 66 997.4
20190423094010 14 99 11.3 24.1 0.00 0.00 0.00 66 997.4
20190423093511 18 92 9.7 41.8 0.00 0.00 0.00 37 1002.6
20190423093009 13 66 9.7 29.0 0.00 0.00 0.00 66 997.5
20190423092510 15 112 12.9 40.2 0.00 0.00 0.00 44 1000.8
20190423092009 15 112 12.9 40.2 0.00 0.00 0.00 44 1000.8
20190423091011 13 71 12.9 29.0 0.00 0.00 0.00 67 997.4
20190423090009 13 59 14.5 24.1 0.00 0.00 0.00 67 997.2
20190423085508 13 101 11.3 29.0 0.00 0.00 0.00 67 997.2
20190423085008 13 82 14.5 30.6 0.00 0.00 0.00 67 997.3
20190423084508 12 73 14.5 30.6 0.00 0.00 0.00 67 997.4
20190423082509 15 112 14.5 40.2 0.00 0.00 0.00 44 1000.8
20190423082013 12 119 12.9 25.7 0.00 0.00 0.00 69 997.2
20190423081513 12 42 14.5 30.6 0.00 0.00 0.00 69 997.3
20190423080513 12 100 12.9 29.0 0.00 0.00 0.00 69 997.2
20190423080016 12 46 12.9 29.0 0.00 0.00 0.00 69 997.2
20190423075514 12 90 14.5 33.8 0.00 0.00 0.00 72 997.2
20190423075013 12 61 14.5 33.8 0.00 0.00 0.00 69 997.2
20190423074013 11 93 16.1 32.2 0.00 0.00 0.00 69 997.3
20190423073512 11 69 14.5 35.4 0.00 0.00 0.00 69 997.4
20190423072513 11 78 16.1 32.2 0.00 0.00 0.00 69 997.4
20190423072013 11 89 17.7 33.8 0.00 0.00 0.00 69 997.4
20190423071512 11 101 12.9 35.4 0.00 0.00 0.00 69 997.4
20190423071012 11 139 14.5 35.4 0.00 0.00 0.00 69 997.4
20190423070013 11 96 16.1 33.8 0.00 0.00 0.00 69 997.2
20190423065513 11 62 14.5 33.8 0.00 0.00 0.00 69 997.4
20190423065012 11 65 14.5 33.8 0.00 0.00 0.00 69 997.4
20190423064513 11 92 14.5 33.8 0.00 0.00 0.00 69 997.4
20190423063012 11 122 14.5 33.8 0.00 0.00 0.00 69 997.5
20190423062512 11 96 14.5 33.8 0.00 0.00 0.00 69 997.6
20190423062012 11 122 11.3 33.8 0.00 0.00 0.00 69 997.6
20190423061513 11 100 9.7 29.0 0.00 0.00 0.00 69 997.6
20190423061012 11 103 9.7 32.2 0.00 0.00 0.00 69 997.7
20190423055511 11 98 12.9 33.8 0.00 0.00 0.00 68 997.6
20190423055012 11 94 14.5 33.8 0.00 0.00 0.00 68 997.7
20190423054511 11 98 14.5 37.0 0.00 0.00 0.00 68 997.6
20190423053511 11 60 12.9 37.0 0.00 0.00 0.00 68 997.7
20190423053011 11 80 17.7 32.2 0.00 0.00 0.00 67 997.7
20190423052511 11 100 16.1 37.0 0.00 0.00 0.00 67 997.8
20190423052011 11 67 14.5 37.0 0.00 0.00 0.00 67 997.7
20190423051511 11 64 14.5 35.4 0.00 0.00 0.00 67 997.8
20190423051012 11 82 16.1 35.4 0.00 0.00 0.00 67 997.8
20190423050511 11 71 16.1 37.0 0.00 0.00 0.00 67 997.9
20190423045511 11 117 16.1 43.5 0.00 0.00 0.00 66 997.5
20190423045011 11 60 17.7 35.4 0.00 0.00 0.00 66 997.5
20190423044011 11 90 16.1 35.4 0.00 0.00 0.00 65 997.7
20190423043011 11 63 17.7 37.0 0.00 0.00 0.00 65 997.9